Time;durP1;ratioP1;P1;durP2;ratioP2;P2;SDS_P1;SDS_P2;PMS_P1;PMS_P2;Temp;Humidity;BMP_temperature;BMP_pressure;BME280_temperature;BME280_humidity;BME280_pressure;Samples;Min_cycle;Max_cycle;Signal;HPM_P1;HPM_P2
2022/07/28 00:01:46;;;;;;;7.23;6.47;;;17.00;93.40;;;;;;4975858;28;20252;-60
2022/07/28 00:04:11;;;;;;;8.30;6.60;;;17.00;93.30;;;;;;4961498;28;20200;-60
2022/07/28 00:06:37;;;;;;;7.33;6.73;;;17.00;93.20;;;;;;4993346;28;20204;-60
2022/07/28 00:09:03;;;;;;;8.50;6.20;;;17.00;93.60;;;;;;4993827;28;20188;-60
2022/07/28 00:11:29;;;;;;;7.17;6.50;;;17.00;93.50;;;;;;4977480;28;20193;-60
2022/07/28 00:13:54;;;;;;;9.13;6.60;;;17.00;93.50;;;;;;4977641;28;20240;-61
2022/07/28 00:16:20;;;;;;;7.70;6.70;;;16.90;93.20;;;;;;4990543;28;20251;-61
2022/07/28 00:18:46;;;;;;;7.60;6.80;;;16.90;93.20;;;;;;4989338;28;20185;-61
2022/07/28 00:21:12;;;;;;;8.40;6.47;;;16.90;93.30;;;;;;4993330;28;20196;-61
2022/07/28 00:23:38;;;;;;;9.50;6.23;;;16.90;93.30;;;;;;4993519;28;20200;-60
2022/07/28 00:26:04;;;;;;;7.73;6.53;;;16.90;93.20;;;;;;5010151;28;20192;-60
2022/07/28 00:28:29;;;;;;;7.10;6.20;;;16.80;93.00;;;;;;4994714;28;20199;-60
2022/07/28 00:30:55;;;;;;;6.67;6.07;;;16.80;93.20;;;;;;4967707;28;20196;-60
2022/07/28 00:33:21;;;;;;;8.03;6.40;;;16.80;93.30;;;;;;4968163;28;20231;-60
2022/07/28 00:35:46;;;;;;;8.93;6.97;;;16.80;93.10;;;;;;4997841;28;20197;-60
2022/07/28 00:38:12;;;;;;;7.77;7.07;;;16.80;93.00;;;;;;4968544;28;20189;-60
2022/07/28 00:43:23;;;;;;;11.33;7.27;;;16.80;93.20;;;;;;4988425;28;20226;-60
2022/07/28 00:45:48;;;;;;;9.30;7.57;;;16.80;93.40;;;;;;5009653;28;20204;-60
2022/07/28 00:48:14;;;;;;;8.73;6.30;;;16.70;93.50;;;;;;4995600;28;20200;-60
2022/07/28 00:50:40;;;;;;;7.87;7.07;;;16.80;93.60;;;;;;4986177;28;20197;-60
2022/07/28 00:53:06;;;;;;;7.57;6.97;;;16.80;93.60;;;;;;4980777;28;20213;-60
2022/07/28 00:55:32;;;;;;;8.27;7.20;;;16.80;93.50;;;;;;4987029;28;20193;-61
2022/07/28 00:57:59;;;;;;;8.23;7.30;;;16.80;93.40;;;;;;4983956;28;20213;-61
2022/07/28 01:00:24;;;;;;;7.90;7.10;;;16.80;93.40;;;;;;4995948;28;20197;-61
2022/07/28 01:02:50;;;;;;;8.23;7.43;;;16.80;93.60;;;;;;4996512;28;20201;-61
2022/07/28 01:05:16;;;;;;;9.10;7.70;;;16.80;93.40;;;;;;4986983;28;20211;-61
2022/07/28 01:07:48;;;;;;;8.63;7.57;;;16.80;93.30;;;;;;4978897;28;20252;-60
2022/07/28 01:10:28;;;;;;;9.23;7.87;;;16.70;93.40;;;;;;5002032;28;20201;-61
2022/07/28 01:13:01;;;;;;;8.93;7.87;;;16.70;93.40;;;;;;5017603;28;20243;-61
2022/07/28 01:15:34;;;;;;;8.67;7.33;;;16.80;93.30;;;;;;4990391;28;20193;-60
2022/07/28 01:18:05;;;;;;;10.57;8.10;;;16.70;93.30;;;;;;4990187;28;20204;-61
2022/07/28 01:20:36;;;;;;;9.27;8.33;;;16.70;93.30;;;;;;4978898;28;20192;-61
2022/07/28 01:23:11;;;;;;;9.47;8.57;;;16.70;93.10;;;;;;4985267;28;20193;-61
2022/07/28 01:25:37;;;;;;;15.27;8.53;;;16.70;93.10;;;;;;4980060;28;20199;-61
2022/07/28 01:28:25;;;;;;;12.97;10.07;;;16.70;92.90;;;;;;4976922;28;20193;-61
2022/07/28 01:30:55;;;;;;;11.17;8.27;;;16.70;93.10;;;;;;5003580;28;20323;-61
2022/07/28 01:33:32;;;;;;;11.17;8.83;;;16.60;92.90;;;;;;4988731;28;20258;-60
2022/07/28 01:36:05;;;;;;;10.90;9.53;;;16.60;93.00;;;;;;4983696;28;20230;-61
2022/07/28 01:38:33;;;;;;;13.87;10.27;;;16.60;93.40;;;;;;4973244;28;20244;-61
2022/07/28 01:41:01;;;;;;;10.67;9.57;;;16.60;93.30;;;;;;4979864;28;20200;-61
2022/07/28 01:43:30;;;;;;;12.10;9.13;;;16.60;93.10;;;;;;5011990;28;20189;-61
2022/07/28 01:45:57;;;;;;;9.37;8.37;;;16.60;93.10;;;;;;4980451;28;20192;-61
2022/07/28 01:48:25;;;;;;;13.07;10.27;;;16.60;93.10;;;;;;5014881;28;20211;-61
2022/07/28 01:50:54;;;;;;;13.60;9.07;;;16.50;93.10;;;;;;4968535;28;20209;-61
2022/07/28 01:53:21;;;;;;;14.20;8.67;;;16.50;93.10;;;;;;4979548;28;20204;-60
2022/07/28 01:55:49;;;;;;;10.50;9.20;;;16.60;92.90;;;;;;4979920;28;20189;-61
2022/07/28 01:58:18;;;;;;;12.57;9.03;;;16.50;92.80;;;;;;4999986;28;20282;-61
2022/07/28 02:00:48;;;;;;;10.90;9.20;;;16.50;92.90;;;;;;4980569;28;20691;-61
2022/07/28 02:03:15;;;;;;;11.47;9.27;;;16.50;93.00;;;;;;4965477;28;20226;-61
2022/07/28 02:05:42;;;;;;;10.47;9.47;;;16.50;93.10;;;;;;4969373;28;20196;-61
2022/07/28 02:08:10;;;;;;;15.47;8.90;;;16.50;93.20;;;;;;4994953;28;20193;-61
2022/07/28 02:10:39;;;;;;;12.17;9.20;;;16.50;93.10;;;;;;4979448;28;20203;-60
2022/07/28 02:13:07;;;;;;;11.77;9.73;;;16.50;93.10;;;;;;5003776;28;20242;-61
2022/07/28 02:15:33;;;;;;;12.07;9.50;;;16.50;93.00;;;;;;4988442;28;20193;-61
2022/07/28 02:18:00;;;;;;;12.17;9.63;;;16.40;93.10;;;;;;4978521;28;20197;-60
2022/07/28 02:20:26;;;;;;;10.87;9.63;;;16.50;93.10;;;;;;4978974;28;20196;-61
2022/07/28 02:22:52;;;;;;;15.30;10.23;;;16.50;93.40;;;;;;4978146;28;20195;-60
2022/07/28 02:25:19;;;;;;;10.77;9.77;;;16.50;93.10;;;;;;4989285;28;20198;-61
2022/07/28 02:28:04;;;;;;;10.93;9.83;;;16.50;93.30;;;;;;4988366;28;20196;-61
2022/07/28 02:30:38;;;;;;;12.13;10.43;;;16.50;93.30;;;;;;4995145;28;20188;-61
2022/07/28 02:33:10;;;;;;;13.27;10.23;;;16.50;93.30;;;;;;4995337;28;20219;-61
2022/07/28 02:35:58;;;;;;;11.27;10.17;;;16.50;93.30;;;;;;4991732;28;20184;-61
2022/07/28 02:38:34;;;;;;;12.30;10.53;;;16.60;93.30;;;;;;5010142;28;20223;-61
2022/07/28 02:41:07;;;;;;;11.13;10.03;;;16.60;93.50;;;;;;4995263;28;20181;-61
2022/07/28 02:43:37;;;;;;;12.63;9.20;;;16.60;93.20;;;;;;4994910;28;20192;-61
2022/07/28 02:46:07;;;;;;;13.47;9.47;;;16.50;93.20;;;;;;4995215;28;20185;-61
2022/07/28 02:48:35;;;;;;;13.10;9.97;;;16.50;93.30;;;;;;4994535;28;20188;-61
2022/07/28 02:51:02;;;;;;;13.20;9.70;;;16.50;93.40;;;;;;4993962;28;20212;-61
2022/07/28 02:53:29;;;;;;;11.57;9.07;;;16.50;93.40;;;;;;4978560;28;20266;-61
2022/07/28 02:55:55;;;;;;;11.93;9.87;;;16.60;93.50;;;;;;5003295;28;20236;-61
2022/07/28 02:58:24;;;;;;;11.30;10.10;;;16.50;93.50;;;;;;4994052;28;20188;-61
2022/07/28 03:00:53;;;;;;;12.93;11.00;;;16.70;93.70;;;;;;4994803;28;20181;-61
2022/07/28 03:03:19;;;;;;;13.53;10.30;;;16.70;93.70;;;;;;5010602;28;20204;-61
2022/07/28 03:05:45;;;;;;;12.23;10.63;;;16.70;93.60;;;;;;5001510;28;20250;-61
2022/07/28 03:08:11;;;;;;;15.27;11.27;;;16.60;93.60;;;;;;4975707;28;20196;-61
2022/07/28 03:10:37;;;;;;;12.47;10.63;;;16.60;93.60;;;;;;4991603;28;20193;-60
2022/07/28 03:13:05;;;;;;;11.63;9.80;;;16.70;93.50;;;;;;4969964;28;20240;-61
2022/07/28 03:15:32;;;;;;;12.47;10.30;;;16.70;93.40;;;;;;4985092;28;20192;-61
2022/07/28 03:18:00;;;;;;;11.37;9.07;;;16.60;93.40;;;;;;4994753;28;20188;-61
2022/07/28 03:20:26;;;;;;;11.73;9.60;;;16.70;93.30;;;;;;4994765;28;20188;-61
2022/07/28 03:22:51;;;;;;;12.77;10.63;;;16.60;93.30;;;;;;4994437;28;20242;-61
2022/07/28 03:25:34;;;;;;;16.37;10.47;;;16.60;93.40;;;;;;4959356;28;20200;-61
2022/07/28 03:28:01;;;;;;;10.60;9.10;;;16.50;93.10;;;;;;5009199;28;20188;-61
2022/07/28 03:30:31;;;;;;;11.37;10.17;;;16.60;93.10;;;;;;5010336;28;20212;-61
2022/07/28 03:33:00;;;;;;;9.97;9.00;;;16.60;93.00;;;;;;4994065;28;20220;-61
2022/07/28 03:35:27;;;;;;;10.93;9.77;;;16.60;93.10;;;;;;4994264;28;20192;-61
2022/07/28 03:38:12;;;;;;;11.93;9.70;;;16.60;93.10;;;;;;4995029;28;20188;-61
2022/07/28 03:40:38;;;;;;;10.67;9.43;;;16.60;92.90;;;;;;4996775;28;20221;-61
2022/07/28 03:43:07;;;;;;;12.00;9.77;;;16.50;92.80;;;;;;4977572;28;20267;-61
2022/07/28 03:45:34;;;;;;;11.17;9.90;;;16.50;93.00;;;;;;4994195;28;20200;-61
2022/07/28 03:48:00;;;;;;;12.57;9.00;;;16.50;93.20;;;;;;4993644;28;20226;-61
2022/07/28 03:50:28;;;;;;;10.97;9.20;;;16.60;93.30;;;;;;4958563;28;20275;-61
2022/07/28 03:52:57;;;;;;;13.80;9.80;;;16.50;93.30;;;;;;5009087;28;20246;-61
2022/07/28 03:55:23;;;;;;;11.07;9.50;;;16.60;93.30;;;;;;4993828;28;20231;-61
2022/07/28 03:57:49;;;;;;;11.43;9.60;;;16.60;93.30;;;;;;4977818;28;20188;-61
2022/07/28 04:00:15;;;;;;;11.93;9.23;;;16.60;93.40;;;;;;4976208;28;20188;-60
2022/07/28 04:02:42;;;;;;;10.37;9.37;;;16.60;93.40;;;;;;4978783;28;20184;-61
2022/07/28 04:05:13;;;;;;;10.93;9.83;;;16.70;93.70;;;;;;4977698;28;20243;-61
2022/07/28 04:07:40;;;;;;;11.80;9.03;;;16.70;93.70;;;;;;5009892;28;20188;-61
2022/07/28 04:10:08;;;;;;;9.90;9.00;;;16.80;93.70;;;;;;4993678;28;20275;-61
2022/07/28 04:12:54;;;;;;;9.53;8.60;;;16.80;93.70;;;;;;4993542;28;20271;-61
2022/07/28 04:15:21;;;;;;;10.80;8.67;;;16.80;93.60;;;;;;5009993;28;20224;-61
2022/07/28 04:17:48;;;;;;;11.93;9.20;;;16.80;93.70;;;;;;4992399;28;20239;-61
2022/07/28 04:20:15;;;;;;;12.20;9.10;;;16.80;93.60;;;;;;5009932;28;20267;-61
2022/07/28 04:22:41;;;;;;;10.80;9.00;;;16.80;93.60;;;;;;4996648;28;20262;-61
2022/07/28 04:25:08;;;;;;;10.33;9.23;;;16.80;93.50;;;;;;4997589;28;20200;-61
2022/07/28 04:27:36;;;;;;;10.60;9.53;;;16.80;93.60;;;;;;5016284;28;20308;-61
2022/07/28 04:30:13;;;;;;;10.33;9.17;;;16.90;93.60;;;;;;5006496;28;20189;-61
2022/07/28 04:32:49;;;;;;;11.90;8.97;;;16.90;93.40;;;;;;5013473;28;20215;-61
2022/07/28 04:35:16;;;;;;;9.13;8.23;;;16.90;93.40;;;;;;4981083;28;20215;-61
2022/07/28 04:37:42;;;;;;;11.47;9.60;;;16.90;93.50;;;;;;4998352;28;20215;-61
2022/07/28 04:40:10;;;;;;;9.57;8.60;;;16.90;93.40;;;;;;4995390;28;20271;-61
2022/07/28 04:42:37;;;;;;;10.00;9.00;;;16.90;93.50;;;;;;4994278;28;20203;-60
2022/07/28 04:45:04;;;;;;;11.00;9.33;;;17.00;93.60;;;;;;4995993;28;20220;-60
2022/07/28 04:47:30;;;;;;;10.00;8.97;;;17.00;93.70;;;;;;4994482;28;20276;-60
2022/07/28 04:49:56;;;;;;;9.17;8.27;;;17.00;93.70;;;;;;4980654;28;20275;-60
2022/07/28 04:52:22;;;;;;;10.10;9.17;;;17.00;93.80;;;;;;4996704;28;20200;-61
2022/07/28 04:54:48;;;;;;;11.17;9.10;;;17.10;93.90;;;;;;5002295;28;20189;-61
2022/07/28 04:57:14;;;;;;;9.67;8.60;;;17.20;93.90;;;;;;4977143;28;20200;-60
2022/07/28 04:59:40;;;;;;;15.47;8.90;;;17.20;93.90;;;;;;4993726;28;20197;-60
2022/07/28 05:02:05;;;;;;;9.23;8.33;;;17.20;94.00;;;;;;4992564;28;20186;-60
2022/07/28 05:04:31;;;;;;;10.77;9.60;;;17.20;94.00;;;;;;4971062;28;20204;-59
2022/07/28 05:06:57;;;;;;;9.87;8.97;;;17.30;94.00;;;;;;4993003;28;20292;-60
2022/07/28 05:09:23;;;;;;;11.03;9.70;;;17.30;94.10;;;;;;5004037;28;20296;-60
2022/07/28 05:11:49;;;;;;;9.33;8.43;;;17.30;94.10;;;;;;4995806;28;20193;-60
2022/07/28 05:14:16;;;;;;;11.67;8.83;;;17.40;94.00;;;;;;4964218;28;20331;-60
2022/07/28 05:16:43;;;;;;;11.93;9.53;;;17.40;94.10;;;;;;4996539;28;20195;-60
2022/07/28 05:19:09;;;;;;;11.00;9.90;;;17.50;94.20;;;;;;4978205;28;20193;-60
2022/07/28 05:21:35;;;;;;;9.43;8.53;;;17.50;94.20;;;;;;4964132;28;20215;-60
2022/07/28 05:24:00;;;;;;;11.27;9.77;;;17.50;94.20;;;;;;4996630;28;20276;-61
2022/07/28 05:26:27;;;;;;;11.20;9.27;;;17.60;94.10;;;;;;4993117;28;20201;-61
2022/07/28 05:28:54;;;;;;;10.50;9.40;;;17.60;94.00;;;;;;4993595;28;20200;-60
2022/07/28 05:31:20;;;;;;;11.83;9.50;;;17.60;94.00;;;;;;4999694;28;20263;-60
2022/07/28 05:33:46;;;;;;;10.80;9.70;;;17.60;93.90;;;;;;4994307;28;20224;-60
2022/07/28 05:36:11;;;;;;;10.13;8.97;;;17.70;93.90;;;;;;4994844;28;20197;-61
2022/07/28 05:38:37;;;;;;;12.60;10.37;;;17.70;93.80;;;;;;4992611;28;20193;-61
2022/07/28 05:41:03;;;;;;;10.40;9.03;;;17.70;93.90;;;;;;4991444;28;20236;-60
2022/07/28 05:43:28;;;;;;;10.93;9.27;;;17.80;94.00;;;;;;4994926;28;20209;-60
2022/07/28 05:45:54;;;;;;;10.00;9.00;;;17.80;94.00;;;;;;4987287;28;20247;-60
2022/07/28 05:48:20;;;;;;;10.10;9.10;;;17.80;94.10;;;;;;4988649;28;20204;-60
2022/07/28 05:50:47;;;;;;;10.63;9.53;;;17.80;94.00;;;;;;4993426;28;20219;-60
2022/07/28 05:53:13;;;;;;;10.30;9.27;;;17.80;94.00;;;;;;5004859;28;20209;-60
2022/07/28 05:55:39;;;;;;;11.87;9.07;;;17.80;94.00;;;;;;4993521;28;20193;-60
2022/07/28 05:58:05;;;;;;;10.57;9.57;;;17.80;94.00;;;;;;4991980;28;20285;-60
2022/07/28 06:00:32;;;;;;;12.13;9.60;;;17.80;94.10;;;;;;4996693;28;20207;-60
2022/07/28 06:03:00;;;;;;;10.17;9.13;;;17.90;94.10;;;;;;4985817;28;20204;-60
2022/07/28 06:05:27;;;;;;;9.30;8.30;;;17.90;94.00;;;;;;4979511;28;20257;-59
2022/07/28 06:07:53;;;;;;;11.43;8.53;;;17.90;94.00;;;;;;4963578;28;20234;-59
2022/07/28 06:10:21;;;;;;;9.90;9.00;;;17.90;94.00;;;;;;4979179;28;20220;-60
2022/07/28 06:12:55;;;;;;;13.23;10.07;;;17.90;94.10;;;;;;4994312;28;20267;-59
2022/07/28 06:15:27;;;;;;;10.07;9.07;;;18.00;94.10;;;;;;5011874;28;20227;-60
2022/07/28 06:17:54;;;;;;;9.73;8.83;;;18.00;94.20;;;;;;4989818;28;20192;-60
2022/07/28 06:20:24;;;;;;;11.50;9.20;;;18.00;94.10;;;;;;4988658;28;20259;-60
2022/07/28 06:22:52;;;;;;;9.50;8.60;;;18.10;94.10;;;;;;4979227;28;20211;-60
2022/07/28 06:25:27;;;;;;;10.40;9.33;;;18.10;94.10;;;;;;5011136;28;20204;-60
2022/07/28 06:27:57;;;;;;;10.80;9.67;;;18.20;94.00;;;;;;4995189;28;20283;-60
2022/07/28 06:30:23;;;;;;;12.70;9.57;;;18.20;94.10;;;;;;4995210;28;20197;-59
2022/07/28 06:32:49;;;;;;;9.93;8.93;;;18.20;94.10;;;;;;4992340;28;20221;-59
2022/07/28 06:35:15;;;;;;;9.67;8.73;;;18.20;94.00;;;;;;4990928;28;20202;-60
2022/07/28 06:37:46;;;;;;;10.10;8.77;;;18.20;94.00;;;;;;4988420;28;20200;-59
2022/07/28 06:40:13;;;;;;;9.53;8.63;;;18.20;93.70;;;;;;4988563;28;20197;-61
2022/07/28 06:42:42;;;;;;;9.33;8.30;;;18.30;93.70;;;;;;4994831;28;20196;-60
2022/07/28 06:45:10;;;;;;;12.60;9.57;;;18.30;93.90;;;;;;4992059;28;20232;-61
2022/07/28 06:47:36;;;;;;;10.77;9.77;;;18.30;93.90;;;;;;4989627;28;20208;-61
2022/07/28 06:50:02;;;;;;;11.03;8.47;;;18.40;93.70;;;;;;4994202;28;20224;-59
2022/07/28 06:52:28;;;;;;;9.67;8.60;;;18.40;93.90;;;;;;4987922;28;20291;-60
2022/07/28 06:54:54;;;;;;;11.90;9.93;;;18.50;94.00;;;;;;4983487;28;20407;-64
2022/07/28 06:57:22;;;;;;;10.97;9.50;;;18.50;94.10;;;;;;4992871;28;20280;-61
2022/07/28 06:59:48;;;;;;;12.97;9.57;;;18.60;94.20;;;;;;5005829;28;20235;-64
2022/07/28 07:02:16;;;;;;;11.50;9.50;;;18.60;94.00;;;;;;5002089;28;20239;-63
2022/07/28 07:04:41;;;;;;;10.03;9.13;;;18.60;94.10;;;;;;4989424;28;20207;-60
2022/07/28 07:07:07;;;;;;;12.77;10.20;;;18.70;94.20;;;;;;4983296;28;20189;-60
2022/07/28 07:09:33;;;;;;;10.40;9.37;;;18.70;94.30;;;;;;4978140;28;20193;-59
2022/07/28 07:11:59;;;;;;;12.17;9.50;;;18.70;94.30;;;;;;5010365;28;20211;-60
2022/07/28 07:14:25;;;;;;;12.23;10.17;;;18.80;94.10;;;;;;4978046;28;20247;-60
2022/07/28 07:16:52;;;;;;;10.80;9.70;;;18.80;94.10;;;;;;4961617;28;20188;-60
2022/07/28 07:19:19;;;;;;;10.63;9.53;;;18.90;94.30;;;;;;4989370;28;20200;-60
2022/07/28 07:21:46;;;;;;;11.33;9.47;;;18.90;94.10;;;;;;4992441;28;20188;-60
2022/07/28 07:24:12;;;;;;;10.13;8.63;;;19.00;93.70;;;;;;4988767;28;20211;-60
2022/07/28 07:26:37;;;;;;;10.37;9.37;;;19.00;93.60;;;;;;5002702;28;20196;-60
2022/07/28 07:29:04;;;;;;;10.90;9.70;;;19.00;93.50;;;;;;4995740;28;20185;-60
2022/07/28 07:31:31;;;;;;;12.03;9.00;;;19.10;93.90;;;;;;5010718;28;20203;-60
2022/07/28 07:33:57;;;;;;;10.37;9.37;;;19.20;94.20;;;;;;4992969;28;20214;-60
2022/07/28 07:36:23;;;;;;;10.97;9.60;;;19.20;93.90;;;;;;4993656;28;20259;-60
2022/07/28 07:38:48;;;;;;;10.37;9.10;;;19.30;94.10;;;;;;4977526;28;20202;-60
2022/07/28 07:41:14;;;;;;;11.87;8.53;;;19.30;94.20;;;;;;4977513;28;20224;-60
2022/07/28 07:43:40;;;;;;;10.17;9.00;;;19.40;94.30;;;;;;4994045;28;20200;-60
2022/07/28 07:46:06;;;;;;;9.20;8.07;;;19.50;94.40;;;;;;4977612;28;20288;-60
2022/07/28 07:48:32;;;;;;;9.50;8.27;;;19.40;92.40;;;;;;4993846;28;20196;-60
2022/07/28 07:50:57;;;;;;;8.70;8.00;;;19.50;93.10;;;;;;4993511;28;20193;-60
2022/07/28 07:53:23;;;;;;;9.00;8.13;;;19.50;93.30;;;;;;4991373;28;20212;-59
2022/07/28 07:55:50;;;;;;;8.67;7.77;;;19.50;93.60;;;;;;4956807;28;20189;-61
2022/07/28 07:58:15;;;;;;;11.57;9.10;;;19.50;93.60;;;;;;4977919;28;20216;-60
2022/07/28 08:00:41;;;;;;;12.93;9.07;;;19.60;93.60;;;;;;4974904;28;20223;-59
2022/07/28 08:03:06;;;;;;;9.23;8.20;;;19.70;93.80;;;;;;4982940;28;20281;-59
2022/07/28 08:05:32;;;;;;;10.57;7.67;;;19.70;92.60;;;;;;4993354;28;20188;-59
2022/07/28 08:07:58;;;;;;;8.00;7.10;;;19.70;92.70;;;;;;4986563;28;20189;-59
2022/07/28 08:10:24;;;;;;;11.20;6.87;;;19.70;92.00;;;;;;4985914;28;20199;-59
2022/07/28 08:12:49;;;;;;;10.07;7.63;;;19.70;90.70;;;;;;4989851;28;20248;-59
2022/07/28 08:15:15;;;;;;;7.77;6.97;;;19.70;90.70;;;;;;4994049;28;20196;-59
2022/07/28 08:17:40;;;;;;;6.90;6.30;;;19.80;91.30;;;;;;4992132;28;20188;-58
2022/07/28 08:20:07;;;;;;;6.93;5.83;;;19.70;90.60;;;;;;4994645;28;20186;-58
2022/07/28 08:22:32;;;;;;;7.53;6.93;;;19.70;87.70;;;;;;4975147;28;20226;-58
2022/07/28 08:24:59;;;;;;;8.27;6.27;;;19.80;88.70;;;;;;4977458;28;20192;-58
2022/07/28 08:27:25;;;;;;;7.90;7.10;;;19.70;89.70;;;;;;4994142;28;20227;-58
2022/07/28 08:29:51;;;;;;;6.93;6.20;;;19.80;90.40;;;;;;4994379;28;20262;-58
2022/07/28 08:32:16;;;;;;;6.80;4.70;;;19.80;89.60;;;;;;4985667;28;20217;-57
2022/07/28 08:34:42;;;;;;;6.13;4.93;;;20.00;86.00;;;;;;4990261;28;20184;-58
2022/07/28 08:37:08;;;;;;;5.47;4.90;;;19.90;85.70;;;;;;4992917;28;20270;-58
2022/07/28 08:39:35;;;;;;;8.20;5.53;;;19.90;87.30;;;;;;4999324;28;20259;-58
2022/07/28 08:42:16;;;;;;;5.70;5.17;;;19.90;88.40;;;;;;4992649;28;20198;-58
2022/07/28 08:44:53;;;;;;;5.00;4.60;;;20.00;89.50;;;;;;4993593;28;20198;-57
2022/07/28 08:47:19;;;;;;;5.50;4.77;;;20.10;86.80;;;;;;5008992;28;20202;-56
2022/07/28 08:49:47;;;;;;;8.00;4.53;;;20.20;88.10;;;;;;4992158;28;20184;-58
2022/07/28 08:52:14;;;;;;;6.97;5.20;;;20.20;88.10;;;;;;4992479;28;20188;-59
2022/07/28 08:54:48;;;;;;;5.93;5.10;;;20.20;85.40;;;;;;4999076;28;20307;-58
2022/07/28 08:57:20;;;;;;;6.33;4.97;;;20.20;87.50;;;;;;4980715;28;20212;-58
2022/07/28 08:59:47;;;;;;;5.80;5.20;;;20.20;88.40;;;;;;5009795;28;20316;-59
2022/07/28 09:02:14;;;;;;;6.90;4.80;;;20.20;89.30;;;;;;5005289;28;20185;-59
2022/07/28 09:04:41;;;;;;;6.13;4.23;;;20.30;89.60;;;;;;4992833;28;20200;-59
2022/07/28 09:07:07;;;;;;;6.13;5.00;;;20.20;85.60;;;;;;4974678;28;20209;-58
2022/07/28 09:09:32;;;;;;;6.10;5.50;;;20.20;87.00;;;;;;4990156;28;20197;-59
2022/07/28 09:12:04;;;;;;;4.80;4.40;;;20.20;87.70;;;;;;4988603;28;20208;-59
2022/07/28 09:14:30;;;;;;;4.37;3.97;;;20.20;84.70;;;;;;4994494;28;20290;-59
2022/07/28 09:16:58;;;;;;;5.40;4.90;;;20.20;85.90;;;;;;4994272;28;20188;-59
2022/07/28 09:19:24;;;;;;;6.63;4.80;;;20.20;87.20;;;;;;5011550;28;20244;-59
2022/07/28 09:21:50;;;;;;;4.70;4.20;;;20.20;87.00;;;;;;4994723;28;20267;-59
2022/07/28 09:24:51;;;;;;;4.50;4.10;;;20.20;84.40;;;;;;4994531;28;20200;-59
2022/07/28 09:27:17;;;;;;;4.37;4.03;;;20.10;84.50;;;;;;4934710;29;20192;-58
2022/07/28 09:29:58;;;;;;;5.23;4.50;;;20.10;83.40;;;;;;4977668;28;20204;-59
2022/07/28 09:32:24;;;;;;;4.73;4.27;;;20.20;82.80;;;;;;4996188;28;20196;-59
2022/07/28 09:34:51;;;;;;;4.50;4.10;;;20.20;84.10;;;;;;4994306;28;20214;-59
2022/07/28 09:37:22;;;;;;;4.53;4.13;;;20.20;83.60;;;;;;4978492;28;20196;-58
2022/07/28 09:39:49;;;;;;;5.43;4.63;;;20.20;84.90;;;;;;4993608;28;20269;-59
2022/07/28 09:42:18;;;;;;;5.37;4.87;;;20.20;85.60;;;;;;4990112;28;20197;-58
2022/07/28 09:44:45;;;;;;;5.43;4.77;;;20.30;86.10;;;;;;4994356;28;20193;-58
2022/07/28 09:47:31;;;;;;;5.77;4.27;;;20.30;86.30;;;;;;4961471;28;20196;-58
2022/07/28 09:49:58;;;;;;;5.83;5.13;;;20.30;85.80;;;;;;4992926;28;20188;-58
2022/07/28 09:52:28;;;;;;;6.87;5.60;;;20.40;85.00;;;;;;4977677;28;20250;-58
2022/07/28 09:55:03;;;;;;;5.90;4.80;;;20.40;84.90;;;;;;4989662;28;20173;-58
2022/07/28 09:57:30;;;;;;;6.23;4.97;;;20.50;84.00;;;;;;4992518;28;20180;-58
2022/07/28 09:59:56;;;;;;;5.23;4.80;;;20.50;84.40;;;;;;5012484;28;20200;-58
2022/07/28 10:02:28;;;;;;;8.07;5.57;;;20.60;84.80;;;;;;5008918;28;20207;-58
2022/07/28 10:04:54;;;;;;;5.40;4.90;;;20.60;85.70;;;;;;4991092;28;20189;-59
2022/07/28 10:07:20;;;;;;;5.87;5.37;;;20.70;86.60;;;;;;5010385;28;20195;-59
2022/07/28 10:09:59;;;;;;;5.90;5.30;;;20.80;86.30;;;;;;4994580;28;20207;-59
2022/07/28 10:12:29;;;;;;;6.50;4.83;;;20.80;86.20;;;;;;4991893;28;20192;-59
2022/07/28 10:14:57;;;;;;;5.43;4.90;;;20.90;86.30;;;;;;4992097;28;20196;-59
2022/07/28 10:17:22;;;;;;;5.40;4.50;;;20.90;86.00;;;;;;4972040;28;20193;-59
2022/07/28 10:19:48;;;;;;;6.47;4.67;;;21.00;86.40;;;;;;4992852;28;20206;-59
2022/07/28 10:22:17;;;;;;;5.57;4.30;;;21.00;82.40;;;;;;5006804;28;20192;-59
2022/07/28 10:24:45;;;;;;;5.00;3.87;;;21.00;79.70;;;;;;5005398;28;20191;-59
2022/07/28 10:27:12;;;;;;;6.50;4.30;;;21.30;74.10;;;;;;4994080;28;20278;-60
2022/07/28 10:29:39;;;;;;;7.73;5.60;;;21.30;78.00;;;;;;4959028;28;20322;-60
2022/07/28 10:32:06;;;;;;;8.73;4.47;;;21.30;81.30;;;;;;4977777;28;20220;-60
2022/07/28 10:34:52;;;;;;;4.90;4.50;;;21.40;79.80;;;;;;4977094;28;20261;-59
2022/07/28 10:37:20;;;;;;;5.37;4.47;;;21.50;80.70;;;;;;4992584;28;20188;-59
2022/07/28 10:40:09;;;;;;;7.17;5.50;;;21.40;79.80;;;;;;4993617;28;20188;-59
2022/07/28 10:42:35;;;;;;;8.27;5.67;;;21.40;79.40;;;;;;4991874;28;20204;-59
2022/07/28 10:45:02;;;;;;;5.03;4.50;;;21.70;80.70;;;;;;5008816;28;20189;-59
2022/07/28 10:47:28;;;;;;;12.47;5.67;;;21.70;77.20;;;;;;4977280;28;20192;-59
2022/07/28 10:49:55;;;;;;;5.47;4.33;;;21.80;80.70;;;;;;4991135;28;20203;-59
2022/07/28 10:52:22;;;;;;;6.03;4.00;;;21.80;75.00;;;;;;4990957;28;20246;-59
2022/07/28 10:55:11;;;;;;;5.47;4.53;;;21.90;75.60;;;;;;4992678;28;20184;-59
2022/07/28 10:57:55;;;;;;;6.83;4.73;;;21.90;77.30;;;;;;4976260;28;20200;-59
2022/07/28 11:00:24;;;;;;;6.43;5.23;;;22.00;78.40;;;;;;4992950;28;20234;-59
2022/07/28 11:02:59;;;;;;;4.10;3.70;;;22.00;74.80;;;;;;5009755;28;20234;-59
2022/07/28 11:05:37;;;;;;;5.67;3.83;;;22.20;74.20;;;;;;4989905;28;20287;-59
2022/07/28 11:08:08;;;;;;;4.73;3.97;;;22.20;74.80;;;;;;4973153;28;20241;-59
2022/07/28 11:10:46;;;;;;;4.67;4.17;;;22.20;69.60;;;;;;4993067;28;20195;-60
2022/07/28 11:13:27;;;;;;;4.97;4.13;;;22.30;71.60;;;;;;4992113;28;20227;-59
2022/07/28 11:15:54;;;;;;;6.30;4.03;;;22.30;75.60;;;;;;4993407;28;20180;-60
2022/07/28 11:18:20;;;;;;;6.90;4.10;;;22.30;74.80;;;;;;4994057;28;20180;-59
2022/07/28 11:20:52;;;;;;;6.47;4.30;;;22.40;71.90;;;;;;4988571;28;20438;-58
2022/07/28 11:23:38;;;;;;;6.77;4.57;;;22.60;68.80;;;;;;4989422;28;20192;-59
2022/07/28 11:26:26;;;;;;;4.63;3.93;;;23.00;66.30;;;;;;4988529;28;20207;-59
2022/07/28 11:29:07;;;;;;;8.90;4.40;;;22.90;70.90;;;;;;4992089;28;20192;-59
2022/07/28 11:31:45;;;;;;;4.10;3.70;;;23.00;72.70;;;;;;4993661;28;20207;-59
2022/07/28 11:34:22;;;;;;;6.33;4.37;;;23.00;72.10;;;;;;4992766;28;20292;-59
2022/07/28 11:37:05;;;;;;;4.57;4.07;;;23.10;74.80;;;;;;5001244;28;20185;-59
2022/07/28 11:39:30;;;;;;;7.60;3.83;;;23.30;70.00;;;;;;4990556;28;20340;-59
2022/07/28 11:41:56;;;;;;;4.67;3.97;;;23.40;69.20;;;;;;4991412;28;20243;-59
2022/07/28 11:44:27;;;;;;;6.77;4.10;;;23.50;64.50;;;;;;4993529;28;20188;-59
2022/07/28 11:47:13;;;;;;;5.23;3.47;;;23.70;69.70;;;;;;4989446;28;20189;-60
2022/07/28 11:49:39;;;;;;;5.67;3.53;;;23.60;68.40;;;;;;4993426;28;20331;-60
2022/07/28 11:52:10;;;;;;;3.70;3.27;;;23.80;67.10;;;;;;4977213;28;20283;-59
2022/07/28 11:54:37;;;;;;;3.80;3.50;;;24.20;67.30;;;;;;4990035;28;20300;-59
2022/07/28 11:57:04;;;;;;;9.27;3.90;;;24.40;62.60;;;;;;4985124;28;20216;-59
2022/07/28 11:59:47;;;;;;;3.93;3.20;;;24.60;66.70;;;;;;4990646;28;20196;-59
2022/07/28 12:02:23;;;;;;;4.63;3.67;;;24.80;66.60;;;;;;4992163;28;20199;-59
2022/07/28 12:05:02;;;;;;;5.53;3.57;;;25.00;65.80;;;;;;4987426;28;20279;-59
2022/07/28 12:07:37;;;;;;;4.50;3.77;;;25.30;58.40;;;;;;4982982;28;20189;-59
2022/07/28 12:10:31;;;;;;;3.77;3.43;;;25.30;64.10;;;;;;4992126;28;20184;-59
2022/07/28 12:12:59;;;;;;;4.40;3.20;;;25.60;57.60;;;;;;4982189;28;20328;-60
2022/07/28 12:15:25;;;;;;;6.07;3.60;;;26.00;62.30;;;;;;4990494;28;20184;-59
2022/07/28 12:17:51;;;;;;;3.00;2.70;;;26.50;62.60;;;;;;4983947;28;20192;-60
2022/07/28 12:20:17;;;;;;;6.60;3.23;;;26.90;59.80;;;;;;4992530;28;20188;-59
2022/07/28 12:23:01;;;;;;;4.43;3.60;;;27.50;58.00;;;;;;5008871;28;20180;-59
2022/07/28 12:25:27;;;;;;;3.83;3.43;;;28.10;54.80;;;;;;4981964;28;20243;-59
2022/07/28 12:27:53;;;;;;;4.70;3.30;;;28.40;49.70;;;;;;5008792;28;20196;-59
2022/07/28 12:30:25;;;;;;;3.33;3.13;;;28.80;55.30;;;;;;4985314;28;20232;-60
2022/07/28 12:32:51;;;;;;;6.43;3.37;;;29.30;50.40;;;;;;4992446;28;20303;-60
2022/07/28 12:35:17;;;;;;;5.30;3.80;;;29.70;51.30;;;;;;4987529;28;20311;-60
2022/07/28 12:37:47;;;;;;;4.83;3.40;;;30.00;50.70;;;;;;4986158;28;20249;-60
2022/07/28 12:40:15;;;;;;;4.30;3.43;;;30.00;47.30;;;;;;4972205;28;20216;-60
2022/07/28 12:42:41;;;;;;;6.37;3.57;;;29.90;50.00;;;;;;4989535;28;20195;-60
2022/07/28 12:45:09;;;;;;;4.90;3.73;;;30.00;47.30;;;;;;4971450;28;20200;-60
2022/07/28 12:47:35;;;;;;;5.83;3.63;;;29.60;47.50;;;;;;4986719;28;20232;-59
2022/07/28 12:50:13;;;;;;;4.83;3.20;;;29.20;49.70;;;;;;5001169;28;20184;-59
2022/07/28 12:52:40;;;;;;;6.73;3.77;;;29.10;53.00;;;;;;5005597;28;20208;-59